Brookfield, Connecticut
Current Conditions -  °F | °C
As of 9:53 AM on Friday 19 Dec 2014 (Local Time) from KDXR Reporting Station
Overcast Overcast  
Wind Chill: -2°   Ceiling: 3900
Heat Index:   Visibility: 10mi
Dew Point: -7°   Wind: 7mph
Humidity: 56%   Direction: 320°NW
Pressure: 30.04"   Gusts: NA
Location:  41.48°N, 73.41°W
Report Text: KDXR 191453Z 32006KT 10SM FEW030 OVC039 01/M07 A3004 RMK AO2 SLP176 T00111067 53020
Loading
Personal Weather Stations






























Interactive Weather Map New forecast layout! Learn more

10-Day Weather Forecast

Advertisements
Track Severe Weather on mobile